Time;durP1;ratioP1;P1;durP2;ratioP2;P2;SDS_P1;SDS_P2;PMS_P1;PMS_P2;Temp;Humidity;BMP_temperature;BMP_pressure;BME280_temperature;BME280_humidity;BME280_pressure;Samples;Min_cycle;Max_cycle;Signal;HPM_P1;HPM_P2
2022/07/11 00:02:09;;;;;;;5.28;3.03;;;16.40;99.90;;;;;;5071089;28;20051;-61
2022/07/11 00:04:35;;;;;;;6.40;3.15;;;16.40;99.90;;;;;;5070626;28;20071;-61
2022/07/11 00:07:02;;;;;;;6.25;3.38;;;16.40;99.90;;;;;;5070106;28;20072;-61
2022/07/11 00:09:28;;;;;;;5.55;3.10;;;16.30;99.90;;;;;;5070368;28;20040;-62
2022/07/11 00:11:54;;;;;;;5.85;3.38;;;16.30;99.90;;;;;;5070795;28;20044;-61
2022/07/11 00:14:21;;;;;;;6.45;3.58;;;16.30;99.90;;;;;;5060902;28;20070;-61
2022/07/11 00:16:49;;;;;;;5.75;3.38;;;16.30;99.90;;;;;;5070480;28;20409;-62
2022/07/11 00:19:15;;;;;;;5.93;3.50;;;16.30;99.90;;;;;;5071189;28;20101;-61
2022/07/11 00:21:41;;;;;;;6.28;3.53;;;16.30;99.90;;;;;;5069719;28;20053;-61
2022/07/11 00:24:07;;;;;;;6.43;3.22;;;16.20;99.90;;;;;;5064437;28;20401;-61
2022/07/11 00:26:34;;;;;;;4.50;3.50;;;16.20;99.90;;;;;;5070487;28;20481;-61
2022/07/11 00:29:00;;;;;;;4.45;2.97;;;16.20;99.90;;;;;;5056702;28;20060;-61
2022/07/11 00:31:26;;;;;;;5.40;3.33;;;16.20;99.90;;;;;;5069157;28;20052;-61
2022/07/11 00:33:51;;;;;;;7.53;3.50;;;16.20;99.90;;;;;;5069068;28;20040;-62
2022/07/11 00:36:17;;;;;;;6.60;3.10;;;16.20;99.90;;;;;;5068880;28;20040;-62
2022/07/11 00:38:43;;;;;;;6.43;3.40;;;16.20;99.90;;;;;;5070405;28;20043;-61
2022/07/11 00:41:08;;;;;;;9.07;3.03;;;16.20;99.90;;;;;;5066772;28;20418;-61
2022/07/11 00:43:37;;;;;;;5.50;3.28;;;16.10;99.90;;;;;;5057542;28;20051;-61
2022/07/11 00:46:04;;;;;;;5.85;3.30;;;16.20;99.90;;;;;;5070060;28;20044;-62
2022/07/11 00:48:30;;;;;;;4.68;3.03;;;16.20;99.90;;;;;;5061810;28;20686;-64
2022/07/11 00:50:57;;;;;;;6.90;2.95;;;16.20;99.90;;;;;;5070543;28;20056;-62
2022/07/11 00:53:23;;;;;;;7.25;3.38;;;16.20;99.90;;;;;;5070677;28;20045;-62
2022/07/11 00:55:52;;;;;;;5.55;2.90;;;16.20;99.90;;;;;;5069646;28;20388;-61
2022/07/11 00:58:18;;;;;;;6.85;3.00;;;16.20;99.90;;;;;;5070045;28;20044;-62
2022/07/11 01:00:44;;;;;;;5.38;3.40;;;16.20;99.90;;;;;;5068338;28;20048;-62
2022/07/11 01:03:11;;;;;;;7.60;3.35;;;16.20;99.90;;;;;;5070676;28;20131;-62
2022/07/11 01:05:37;;;;;;;3.80;2.83;;;16.20;99.90;;;;;;5069611;28;20044;-62
2022/07/11 01:08:03;;;;;;;4.60;3.10;;;16.20;99.90;;;;;;5070064;28;20048;-63
2022/07/11 01:10:28;;;;;;;5.85;3.03;;;16.20;99.90;;;;;;5070328;28;20044;-62
2022/07/11 01:12:54;;;;;;;5.30;3.15;;;16.20;99.90;;;;;;5062938;28;20136;-62
2022/07/11 01:15:20;;;;;;;5.45;3.00;;;16.20;99.90;;;;;;5064099;28;20571;-62
2022/07/11 01:17:46;;;;;;;5.05;3.00;;;16.20;99.90;;;;;;5067322;28;20044;-62
2022/07/11 01:20:12;;;;;;;4.50;2.75;;;16.20;99.90;;;;;;5069294;28;20139;-62
2022/07/11 01:22:44;;;;;;;4.68;2.50;;;16.20;99.90;;;;;;5069757;28;20052;-61
2022/07/11 01:25:10;;;;;;;5.75;2.65;;;16.20;99.90;;;;;;5056654;28;20049;-61
2022/07/11 01:27:36;;;;;;;5.45;2.92;;;16.20;99.90;;;;;;5057354;28;20126;-64
2022/07/11 01:30:04;;;;;;;4.72;2.78;;;16.20;99.90;;;;;;5041270;28;20698;-61
2022/07/11 01:32:30;;;;;;;4.93;2.80;;;16.20;99.90;;;;;;5068380;28;20032;-60
2022/07/11 01:34:55;;;;;;;5.07;2.63;;;16.20;99.90;;;;;;5051675;28;20636;-61
2022/07/11 01:37:21;;;;;;;4.88;2.50;;;16.10;99.90;;;;;;5059986;28;20048;-62
2022/07/11 01:39:47;;;;;;;5.75;2.83;;;16.10;99.90;;;;;;5068121;28;20150;-62
2022/07/11 01:42:12;;;;;;;5.35;3.00;;;16.10;99.90;;;;;;5069587;28;20043;-61
2022/07/11 01:44:38;;;;;;;5.90;3.10;;;16.10;99.90;;;;;;5064760;28;20079;-64
2022/07/11 01:47:04;;;;;;;5.43;3.13;;;16.10;99.90;;;;;;5051599;28;20075;-61
2022/07/11 01:49:29;;;;;;;5.35;2.60;;;16.10;99.90;;;;;;5068568;28;20044;-61
2022/07/11 01:51:56;;;;;;;6.13;2.75;;;16.10;99.90;;;;;;5069429;28;20044;-61
2022/07/11 01:54:22;;;;;;;5.13;3.22;;;16.10;99.90;;;;;;5069922;28;20159;-61
2022/07/11 01:56:47;;;;;;;5.53;3.05;;;16.10;99.90;;;;;;5055357;28;20124;-61
2022/07/11 01:59:13;;;;;;;7.07;3.25;;;16.10;99.90;;;;;;5069372;28;20509;-61
2022/07/11 02:01:39;;;;;;;5.95;3.22;;;16.20;99.90;;;;;;5068473;28;20501;-64
2022/07/11 02:04:05;;;;;;;5.60;3.10;;;16.20;99.90;;;;;;5070013;28;20363;-61
2022/07/11 02:06:32;;;;;;;6.75;3.20;;;16.10;99.90;;;;;;5069565;28;20117;-62
2022/07/11 02:08:57;;;;;;;5.78;3.00;;;16.10;99.90;;;;;;5067644;28;20156;-62
2022/07/11 02:11:23;;;;;;;4.68;2.97;;;16.10;99.90;;;;;;5071387;28;20247;-62
2022/07/11 02:13:49;;;;;;;5.03;3.08;;;16.10;99.90;;;;;;5071506;28;20044;-62
2022/07/11 02:16:16;;;;;;;6.13;3.33;;;16.10;99.90;;;;;;5073500;28;20051;-62
2022/07/11 02:18:41;;;;;;;6.35;3.53;;;16.10;99.90;;;;;;5072557;28;20067;-65
2022/07/11 02:21:08;;;;;;;6.15;3.15;;;16.10;99.90;;;;;;5062994;28;20041;-62
2022/07/11 02:23:33;;;;;;;6.60;2.95;;;16.10;99.90;;;;;;5066842;28;20059;-62
2022/07/11 02:25:59;;;;;;;6.53;2.63;;;16.10;99.90;;;;;;5067347;28;20045;-62
2022/07/11 02:28:25;;;;;;;4.47;2.45;;;16.10;99.90;;;;;;5068987;28;20052;-63
2022/07/11 02:30:50;;;;;;;4.68;2.40;;;16.10;99.90;;;;;;5070107;28;20040;-63
2022/07/11 02:33:16;;;;;;;5.88;2.92;;;16.10;99.90;;;;;;5045496;28;20049;-62
2022/07/11 02:35:46;;;;;;;3.63;2.15;;;16.10;99.90;;;;;;5068501;28;20129;-63
2022/07/11 02:38:12;;;;;;;3.35;2.25;;;16.00;99.90;;;;;;5057025;28;20041;-62
2022/07/11 02:40:38;;;;;;;4.15;2.58;;;16.00;99.90;;;;;;5060970;28;20124;-62
2022/07/11 02:43:03;;;;;;;3.72;2.38;;;16.00;99.90;;;;;;5071138;28;20482;-64
2022/07/11 02:45:29;;;;;;;4.65;2.33;;;16.00;99.90;;;;;;5066860;28;20398;-65
2022/07/11 02:47:55;;;;;;;3.30;2.40;;;16.00;99.90;;;;;;5060346;28;20486;-62
2022/07/11 02:50:20;;;;;;;4.28;2.28;;;16.00;99.90;;;;;;5069863;28;20048;-62
2022/07/11 02:52:47;;;;;;;5.53;2.85;;;16.00;99.90;;;;;;5072569;28;20090;-65
2022/07/11 02:55:15;;;;;;;6.32;2.58;;;16.00;99.90;;;;;;5071300;28;20079;-62
2022/07/11 02:57:41;;;;;;;5.63;2.60;;;16.00;99.90;;;;;;5072674;28;20040;-63
2022/07/11 03:00:13;;;;;;;4.97;2.60;;;16.00;99.90;;;;;;5067806;28;20159;-62
2022/07/11 03:02:39;;;;;;;4.93;2.65;;;16.00;99.90;;;;;;5067439;28;20045;-61
2022/07/11 03:05:06;;;;;;;6.53;2.80;;;16.00;99.90;;;;;;5066544;28;20127;-65
2022/07/11 03:07:31;;;;;;;6.20;2.88;;;16.00;99.90;;;;;;5072353;28;20455;-62
2022/07/11 03:09:57;;;;;;;6.13;2.60;;;16.00;99.90;;;;;;5070215;28;20053;-62
2022/07/11 03:12:23;;;;;;;5.30;2.78;;;16.00;99.90;;;;;;5071144;28;20044;-62
2022/07/11 03:14:49;;;;;;;4.07;2.45;;;16.00;99.90;;;;;;5072238;28;20119;-65
2022/07/11 03:17:16;;;;;;;4.53;2.20;;;16.00;99.90;;;;;;5070894;28;20048;-62
2022/07/11 03:19:42;;;;;;;5.38;2.25;;;16.00;99.90;;;;;;5071107;28;20041;-62
2022/07/11 03:22:07;;;;;;;3.15;1.83;;;15.90;99.90;;;;;;5071046;28;20166;-62
2022/07/11 03:24:33;;;;;;;3.00;1.92;;;15.90;99.90;;;;;;5051978;28;20113;-62
2022/07/11 03:26:59;;;;;;;3.53;1.80;;;16.00;99.90;;;;;;5071190;28;20048;-62
2022/07/11 03:29:24;;;;;;;2.80;1.55;;;15.90;99.90;;;;;;5071949;28;20041;-62
2022/07/11 03:31:50;;;;;;;3.92;1.67;;;15.90;99.90;;;;;;5053450;28;20045;-64
2022/07/11 03:34:16;;;;;;;2.28;1.45;;;15.90;99.90;;;;;;5071103;28;20099;-62
2022/07/11 03:36:42;;;;;;;2.17;1.60;;;15.90;99.90;;;;;;5063809;28;20060;-62
2022/07/11 03:39:07;;;;;;;2.28;1.30;;;15.90;99.90;;;;;;5051092;28;20140;-62
2022/07/11 03:41:33;;;;;;;3.15;1.52;;;15.90;99.90;;;;;;5052945;28;20037;-62
2022/07/11 03:43:59;;;;;;;3.58;1.80;;;15.90;99.90;;;;;;5068197;28;20050;-62
2022/07/11 03:46:24;;;;;;;2.63;1.63;;;16.00;99.90;;;;;;5057507;28;20052;-62
2022/07/11 03:48:51;;;;;;;2.78;1.30;;;15.90;99.90;;;;;;5064347;28;20149;-62
2022/07/11 03:51:16;;;;;;;1.95;1.27;;;15.90;99.90;;;;;;5068708;28;20053;-62
2022/07/11 03:53:43;;;;;;;3.08;1.58;;;15.90;99.90;;;;;;5070754;28;20067;-63
2022/07/11 03:56:09;;;;;;;4.22;1.60;;;15.90;99.90;;;;;;5070866;28;20128;-62
2022/07/11 03:58:35;;;;;;;4.07;1.50;;;15.90;99.90;;;;;;5071199;28;20119;-62
2022/07/11 04:01:00;;;;;;;2.22;1.50;;;15.90;99.90;;;;;;5085094;28;20048;-62
2022/07/11 04:03:26;;;;;;;3.90;1.80;;;15.90;99.90;;;;;;5070217;28;20063;-61
2022/07/11 04:05:52;;;;;;;4.97;1.90;;;15.90;99.90;;;;;;5071153;28;20054;-61
2022/07/11 04:08:18;;;;;;;5.05;1.63;;;15.90;99.90;;;;;;5069267;28;20945;-62
2022/07/11 04:10:44;;;;;;;3.72;1.80;;;15.90;99.90;;;;;;5069952;28;20439;-64
2022/07/11 04:13:09;;;;;;;5.28;1.70;;;15.90;99.90;;;;;;5067965;28;20134;-62
2022/07/11 04:15:35;;;;;;;4.10;2.20;;;15.90;99.90;;;;;;5069274;28;20588;-62
2022/07/11 04:18:01;;;;;;;4.53;1.60;;;15.90;99.90;;;;;;5070444;28;20049;-61
2022/07/11 04:20:27;;;;;;;3.45;1.45;;;15.90;99.90;;;;;;5069681;28;20056;-61
2022/07/11 04:22:52;;;;;;;3.92;1.65;;;15.90;99.90;;;;;;5069786;28;20040;-62
2022/07/11 04:25:18;;;;;;;2.67;1.60;;;15.90;99.90;;;;;;5069110;28;20044;-62
2022/07/11 04:27:44;;;;;;;3.83;1.40;;;15.90;99.90;;;;;;5069654;28;20067;-61
2022/07/11 04:30:10;;;;;;;3.92;1.45;;;15.90;99.90;;;;;;5069203;28;20048;-62
2022/07/11 04:32:35;;;;;;;3.22;1.40;;;15.80;99.90;;;;;;5069950;28;20049;-62
2022/07/11 04:35:02;;;;;;;5.05;1.30;;;15.80;99.90;;;;;;5068389;28;20048;-64
2022/07/11 04:37:28;;;;;;;2.17;1.20;;;15.80;99.90;;;;;;5041929;28;20076;-62
2022/07/11 04:39:53;;;;;;;1.63;1.13;;;15.80;99.90;;;;;;5051268;28;20087;-62
2022/07/11 04:42:19;;;;;;;1.88;1.23;;;15.70;99.90;;;;;;5070001;28;20439;-61
2022/07/11 04:44:45;;;;;;;3.45;1.20;;;15.80;99.90;;;;;;5068991;28;20056;-62
2022/07/11 04:47:10;;;;;;;2.63;1.25;;;15.80;99.90;;;;;;5069836;28;20052;-61
2022/07/11 04:49:37;;;;;;;3.17;1.20;;;15.80;99.90;;;;;;5070450;28;20154;-62
2022/07/11 04:52:04;;;;;;;3.50;1.20;;;15.70;99.90;;;;;;5068552;28;20128;-65
2022/07/11 04:54:29;;;;;;;2.40;1.13;;;15.70;99.90;;;;;;5052570;28;20109;-62
2022/07/11 04:56:56;;;;;;;0.90;0.70;;;15.80;99.90;;;;;;5069689;28;20048;-62
2022/07/11 04:59:23;;;;;;;2.03;1.08;;;15.80;99.90;;;;;;5069846;28;20044;-62
2022/07/11 05:01:50;;;;;;;4.43;1.25;;;15.80;99.90;;;;;;5070275;28;20409;-62
2022/07/11 05:04:15;;;;;;;4.28;1.17;;;15.80;99.90;;;;;;5059526;28;20041;-62
2022/07/11 05:06:41;;;;;;;2.90;1.20;;;15.90;99.90;;;;;;5055105;28;20044;-62
2022/07/11 05:09:07;;;;;;;1.25;1.02;;;15.90;99.90;;;;;;5049790;28;20160;-63
2022/07/11 05:11:34;;;;;;;2.63;0.80;;;16.00;99.90;;;;;;5050219;28;20115;-62
2022/07/11 05:14:00;;;;;;;4.53;1.10;;;16.00;99.90;;;;;;5062400;28;20121;-62
2022/07/11 05:16:26;;;;;;;2.90;1.33;;;16.10;99.90;;;;;;5054399;28;20086;-61
2022/07/11 05:18:52;;;;;;;1.75;0.93;;;16.10;99.90;;;;;;5052858;28;20072;-60
2022/07/11 05:21:23;;;;;;;1.63;1.08;;;16.20;99.90;;;;;;5049637;28;20041;-61
2022/07/11 05:23:49;;;;;;;2.28;0.85;;;16.30;99.90;;;;;;5050331;28;20156;-62
2022/07/11 05:26:16;;;;;;;2.22;0.77;;;16.30;99.90;;;;;;5052666;28;20053;-61
2022/07/11 05:28:42;;;;;;;1.05;0.80;;;16.40;99.90;;;;;;5060688;28;20059;-61
2022/07/11 05:31:08;;;;;;;1.48;0.70;;;16.40;99.90;;;;;;5049713;28;20043;-64
2022/07/11 05:33:37;;;;;;;1.48;0.60;;;16.40;99.90;;;;;;5048955;28;20080;-61
2022/07/11 05:36:03;;;;;;;1.88;0.63;;;16.40;99.90;;;;;;5033051;28;20049;-61
2022/07/11 05:38:29;;;;;;;1.08;0.55;;;16.40;99.90;;;;;;5075619;28;20052;-62
2022/07/11 05:40:55;;;;;;;2.05;0.65;;;16.40;99.90;;;;;;5056000;28;20048;-61
2022/07/11 05:43:23;;;;;;;1.90;0.68;;;16.30;99.90;;;;;;5050524;28;20468;-60
2022/07/11 05:45:48;;;;;;;1.80;0.70;;;16.30;99.90;;;;;;5052932;28;20555;-61
2022/07/11 05:48:14;;;;;;;2.47;0.70;;;16.30;99.90;;;;;;5056892;28;20041;-61
2022/07/11 05:50:40;;;;;;;0.88;0.50;;;16.30;99.90;;;;;;5060917;28;20587;-60
2022/07/11 05:53:05;;;;;;;0.82;0.45;;;16.30;99.90;;;;;;5054981;28;20048;-61
2022/07/11 05:55:31;;;;;;;1.85;0.95;;;16.30;99.90;;;;;;5054345;28;20424;-62
2022/07/11 05:57:59;;;;;;;1.20;0.68;;;16.40;99.90;;;;;;5059441;28;20071;-62
2022/07/11 06:00:27;;;;;;;2.25;0.88;;;16.40;99.90;;;;;;5065598;28;20053;-62
2022/07/11 06:02:53;;;;;;;2.53;0.90;;;16.70;99.90;;;;;;5053552;28;20052;-61
2022/07/11 06:05:19;;;;;;;1.05;0.73;;;16.60;99.90;;;;;;5064983;28;20095;-60
2022/07/11 06:10:29;;;;;;;1.08;0.60;;;16.70;99.90;;;;;;5064172;28;20048;-61
2022/07/11 06:12:55;;;;;;;0.60;0.60;;;16.70;99.90;;;;;;5053485;28;20044;-61
2022/07/11 06:15:20;;;;;;;2.30;0.95;;;16.80;99.90;;;;;;5052535;28;20140;-62
2022/07/11 06:17:46;;;;;;;1.63;0.80;;;16.80;99.90;;;;;;5056343;28;20059;-62
2022/07/11 06:20:12;;;;;;;3.08;0.93;;;16.90;99.90;;;;;;5066284;28;20044;-61
2022/07/11 06:22:38;;;;;;;1.85;0.90;;;16.90;99.90;;;;;;5072244;28;20076;-62
2022/07/11 06:25:04;;;;;;;0.93;0.70;;;17.00;99.90;;;;;;5059027;28;20079;-60
2022/07/11 06:27:30;;;;;;;2.25;0.98;;;17.00;99.90;;;;;;5066642;28;20041;-62
2022/07/11 06:29:56;;;;;;;2.67;0.98;;;17.20;99.90;;;;;;5068367;28;20143;-63
2022/07/11 06:32:23;;;;;;;3.38;1.05;;;17.40;99.90;;;;;;5067423;28;20051;-63
2022/07/11 06:34:49;;;;;;;1.33;0.88;;;17.50;99.90;;;;;;5072860;28;20055;-62
2022/07/11 06:37:15;;;;;;;1.73;0.93;;;17.60;99.90;;;;;;5076969;28;20049;-65
2022/07/11 06:39:41;;;;;;;1.38;0.73;;;17.60;99.90;;;;;;5058143;28;20045;-61
2022/07/11 06:42:06;;;;;;;1.58;0.88;;;17.60;99.90;;;;;;5071125;28;20501;-61
2022/07/11 06:44:32;;;;;;;1.35;0.70;;;17.50;99.90;;;;;;5057531;28;20048;-61
2022/07/11 06:46:58;;;;;;;1.00;0.75;;;17.50;99.90;;;;;;5061098;28;20128;-62
2022/07/11 06:49:24;;;;;;;0.88;0.57;;;17.50;99.90;;;;;;5058168;28;20456;-62
2022/07/11 06:51:50;;;;;;;1.83;0.80;;;17.50;99.90;;;;;;5057128;28;20075;-61
2022/07/11 06:54:16;;;;;;;1.50;0.68;;;17.50;99.90;;;;;;5060988;28;20056;-61
2022/07/11 06:56:41;;;;;;;0.98;0.60;;;17.50;99.90;;;;;;5056186;28;20051;-61
2022/07/11 06:59:07;;;;;;;2.13;1.17;;;17.50;99.90;;;;;;5065971;28;20044;-62
2022/07/11 07:01:33;;;;;;;1.17;0.80;;;17.50;99.90;;;;;;5069048;28;20052;-62
2022/07/11 07:03:59;;;;;;;3.03;0.98;;;17.70;99.90;;;;;;5067206;28;20055;-61
2022/07/11 07:06:24;;;;;;;2.58;1.08;;;17.80;99.90;;;;;;5064919;28;20049;-61
2022/07/11 07:08:50;;;;;;;1.13;0.75;;;17.90;99.90;;;;;;5069206;28;20036;-61
2022/07/11 07:11:16;;;;;;;2.03;1.00;;;17.90;99.90;;;;;;5069400;28;20048;-62
2022/07/11 07:13:41;;;;;;;2.63;1.13;;;18.00;99.90;;;;;;5060558;28;20040;-61
2022/07/11 07:16:07;;;;;;;1.75;0.90;;;17.90;99.90;;;;;;5049336;28;20420;-62
2022/07/11 07:18:33;;;;;;;2.20;1.00;;;17.90;99.90;;;;;;5050524;28;20052;-62
2022/07/11 07:20:59;;;;;;;2.05;0.90;;;18.10;99.90;;;;;;5059787;28;20514;-62
2022/07/11 07:23:25;;;;;;;2.55;1.02;;;18.40;99.90;;;;;;5056103;28;20049;-62
2022/07/11 07:25:50;;;;;;;1.15;0.90;;;18.70;99.90;;;;;;5051973;28;20471;-62
2022/07/11 07:28:16;;;;;;;3.78;0.80;;;18.90;99.90;;;;;;5067252;28;20049;-62
2022/07/11 07:30:42;;;;;;;1.70;0.60;;;19.00;99.90;;;;;;5056271;28;20919;-62
2022/07/11 07:33:10;;;;;;;1.70;0.82;;;19.30;99.90;;;;;;5065235;28;20099;-62
2022/07/11 07:35:36;;;;;;;2.95;0.85;;;19.40;99.90;;;;;;5059153;28;20119;-62
2022/07/11 07:38:01;;;;;;;0.73;0.70;;;19.60;99.90;;;;;;5055406;28;20530;-61
2022/07/11 07:40:27;;;;;;;1.05;0.63;;;19.70;99.90;;;;;;5066517;28;20404;-62
2022/07/11 07:42:54;;;;;;;2.47;0.77;;;19.90;99.90;;;;;;5060161;28;20126;-61
2022/07/11 07:45:20;;;;;;;1.60;0.57;;;20.00;99.90;;;;;;5058516;28;20044;-61
2022/07/11 07:47:46;;;;;;;1.60;0.60;;;20.30;99.90;;;;;;5050298;28;20099;-63
2022/07/11 07:50:11;;;;;;;0.65;0.40;;;20.20;99.90;;;;;;5062254;28;20048;-62
2022/07/11 07:52:37;;;;;;;1.33;0.90;;;20.00;99.90;;;;;;5067599;28;20044;-61
2022/07/11 07:55:03;;;;;;;1.35;0.57;;;19.60;99.90;;;;;;5067440;28;20579;-63
2022/07/11 07:57:29;;;;;;;1.08;0.40;;;19.30;99.90;;;;;;5064185;28;20382;-63
2022/07/11 08:01:34;;;;;;;1.05;0.43;;;19.10;99.90;;;;;;5056940;28;20053;-63
2022/07/11 08:02:41;;;;;;;1.85;0.50;;;18.90;99.90;;;;;;5061761;28;20478;-63
2022/07/11 08:05:09;;;;;;;0.45;0.30;;;18.80;99.90;;;;;;5049675;28;20488;-63
2022/07/11 08:07:35;;;;;;;0.43;0.40;;;18.90;99.90;;;;;;5056346;28;20105;-63
2022/07/11 08:10:04;;;;;;;1.52;0.50;;;19.00;99.90;;;;;;5050737;28;20056;-63
2022/07/11 08:12:30;;;;;;;0.35;0.30;;;19.20;99.90;;;;;;5064861;28;20446;-65
2022/07/11 08:14:55;;;;;;;1.98;0.75;;;19.50;99.90;;;;;;5051138;28;20131;-62
2022/07/11 08:17:21;;;;;;;0.75;0.25;;;19.70;99.90;;;;;;5050844;28;20124;-63
2022/07/11 08:19:47;;;;;;;1.17;0.45;;;19.70;99.90;;;;;;5051303;28;20110;-63
2022/07/11 08:22:12;;;;;;;0.77;0.50;;;19.70;99.90;;;;;;5060662;28;20037;-62
2022/07/11 08:24:38;;;;;;;1.05;0.28;;;19.50;99.90;;;;;;5058876;28;20052;-62
2022/07/11 08:27:04;;;;;;;1.08;0.40;;;19.40;99.90;;;;;;5052979;28;20041;-62
2022/07/11 08:29:30;;;;;;;0.70;0.30;;;19.20;99.90;;;;;;5050537;28;20051;-64
2022/07/11 08:31:55;;;;;;;1.17;0.30;;;19.00;99.90;;;;;;5055178;28;20048;-62
2022/07/11 08:34:21;;;;;;;2.10;0.50;;;19.00;99.90;;;;;;5063247;28;20044;-62
2022/07/11 08:36:46;;;;;;;0.93;0.40;;;18.80;99.90;;;;;;5060245;28;20048;-63
2022/07/11 08:39:12;;;;;;;1.05;0.30;;;18.80;99.90;;;;;;5060649;28;20044;-62
2022/07/11 08:41:44;;;;;;;1.30;0.60;;;18.80;99.90;;;;;;5063710;28;20115;-62
2022/07/11 08:44:11;;;;;;;0.50;0.50;;;18.70;99.90;;;;;;5061337;28;20090;-62
2022/07/11 08:46:40;;;;;;;1.90;0.45;;;18.70;99.90;;;;;;5067257;28;20501;-63
2022/07/11 08:49:06;;;;;;;2.17;0.40;;;18.70;99.90;;;;;;5061000;28;20044;-64
2022/07/11 08:51:32;;;;;;;0.68;0.45;;;18.70;99.90;;;;;;5060856;28;20048;-61
2022/07/11 08:53:57;;;;;;;0.65;0.32;;;18.70;99.90;;;;;;5067620;28;20048;-62
2022/07/11 08:56:27;;;;;;;1.17;0.28;;;18.80;99.90;;;;;;5067436;28;20400;-62
2022/07/11 08:58:53;;;;;;;1.65;0.35;;;18.80;99.90;;;;;;5066865;28;20055;-63
2022/07/11 09:01:37;;;;;;;0.70;0.30;;;18.80;99.90;;;;;;5062107;28;20052;-62
2022/07/11 09:04:04;;;;;;;1.27;0.60;;;18.80;99.90;;;;;;5067793;28;20044;-62
2022/07/11 09:06:30;;;;;;;0.43;0.35;;;18.70;99.90;;;;;;5058594;28;20044;-61
2022/07/11 09:09:00;;;;;;;1.00;0.25;;;18.70;99.90;;;;;;5063187;28;20044;-61
2022/07/11 09:11:26;;;;;;;0.52;0.32;;;18.80;99.90;;;;;;5069782;28;20502;-62
2022/07/11 09:13:52;;;;;;;0.80;0.35;;;18.90;99.90;;;;;;5058259;28;20497;-62
2022/07/11 09:16:19;;;;;;;1.60;0.35;;;19.00;99.90;;;;;;5062721;28;20041;-62
2022/07/11 09:18:45;;;;;;;1.33;0.65;;;19.00;99.90;;;;;;5067081;28;20398;-62
2022/07/11 09:26:49;;;;;;;0.35;0.35;;;19.10;99.90;;;;;;5064414;28;20067;-60
2022/07/11 09:29:21;;;;;;;0.38;0.32;;;19.10;99.90;;;;;;5057947;28;20055;-61
2022/07/11 09:31:48;;;;;;;0.50;0.28;;;19.10;99.90;;;;;;5053836;28;20383;-62
2022/07/11 09:34:18;;;;;;;1.90;0.35;;;19.00;99.90;;;;;;5059767;28;20053;-61
2022/07/11 09:36:46;;;;;;;0.55;0.40;;;19.00;99.90;;;;;;5056762;28;20049;-61
2022/07/11 09:39:19;;;;;;;0.50;0.13;;;19.00;99.90;;;;;;5054406;28;20057;-61
2022/07/11 09:41:46;;;;;;;0.20;0.20;;;18.90;99.90;;;;;;5059184;28;20123;-61
2022/07/11 09:44:20;;;;;;;2.28;0.43;;;18.90;99.90;;;;;;5073924;28;20634;-61
2022/07/11 09:46:50;;;;;;;0.97;0.43;;;18.90;99.90;;;;;;5073058;28;20040;-61
2022/07/11 09:49:28;;;;;;;0.85;0.17;;;19.00;99.90;;;;;;5072243;28;20040;-61
2022/07/11 09:51:54;;;;;;;1.55;0.40;;;19.00;99.90;;;;;;5073923;28;20377;-61
2022/07/11 09:54:19;;;;;;;0.17;0.17;;;19.10;99.90;;;;;;5072584;28;20036;-61
2022/07/11 09:56:51;;;;;;;0.47;0.20;;;19.10;99.90;;;;;;5073401;28;20056;-61
2022/07/11 09:59:18;;;;;;;1.63;0.50;;;19.10;99.90;;;;;;5071959;28;20166;-61
2022/07/11 10:01:45;;;;;;;0.50;0.50;;;19.00;99.90;;;;;;5073702;28;20040;-61
2022/07/11 10:04:11;;;;;;;1.27;0.45;;;19.00;99.90;;;;;;5071838;28;20410;-61
2022/07/11 10:06:38;;;;;;;2.15;0.75;;;18.90;99.90;;;;;;5072234;28;20041;-62
2022/07/11 10:09:07;;;;;;;2.22;0.63;;;18.80;99.90;;;;;;5068419;28;20518;-61
2022/07/11 10:11:33;;;;;;;0.95;0.57;;;18.80;99.90;;;;;;5052704;28;20041;-60
2022/07/11 10:14:07;;;;;;;1.55;0.57;;;18.80;99.90;;;;;;5058105;28;20048;-61
2022/07/11 10:16:56;;;;;;;1.20;0.40;;;18.80;99.90;;;;;;5057311;28;20037;-61
2022/07/11 10:19:34;;;;;;;0.50;0.50;;;18.90;99.90;;;;;;5074964;28;20120;-62
2022/07/11 10:22:06;;;;;;;1.15;0.70;;;19.00;99.90;;;;;;5051936;28;20045;-61
2022/07/11 10:24:44;;;;;;;1.60;0.50;;;19.00;99.90;;;;;;5054207;28;20537;-61
2022/07/11 10:27:24;;;;;;;1.80;0.63;;;19.00;99.90;;;;;;5062663;28;20530;-61
2022/07/11 10:29:52;;;;;;;0.73;0.50;;;19.10;99.90;;;;;;5055657;28;20041;-61
2022/07/11 10:32:21;;;;;;;0.80;0.52;;;19.20;99.90;;;;;;5061764;28;20068;-61
2022/07/11 10:35:11;;;;;;;1.00;0.65;;;19.20;99.90;;;;;;5061425;28;20455;-63
2022/07/11 10:37:48;;;;;;;0.77;0.55;;;19.20;99.90;;;;;;5070516;28;20052;-62
2022/07/11 10:40:14;;;;;;;1.23;0.65;;;19.20;99.90;;;;;;5051309;28;20045;-62
2022/07/11 10:42:41;;;;;;;1.08;0.32;;;19.20;99.90;;;;;;5069411;28;20039;-62
2022/07/11 10:45:10;;;;;;;0.57;0.47;;;19.30;99.90;;;;;;5072653;28;20048;-62
2022/07/11 10:47:45;;;;;;;0.65;0.57;;;19.30;99.90;;;;;;5066583;28;20043;-62
2022/07/11 10:50:33;;;;;;;0.93;0.63;;;19.30;99.90;;;;;;5062470;28;20048;-61
2022/07/11 10:53:08;;;;;;;0.43;0.20;;;19.20;99.90;;;;;;5064679;28;20048;-60
2022/07/11 10:55:44;;;;;;;1.00;0.50;;;19.20;99.90;;;;;;5069969;28;20433;-60
2022/07/11 10:58:25;;;;;;;0.93;0.50;;;19.20;99.90;;;;;;5069936;28;20185;-62
2022/07/11 11:01:10;;;;;;;1.52;0.60;;;19.20;99.90;;;;;;5061126;28;20563;-64
2022/07/11 11:03:36;;;;;;;1.10;0.52;;;19.20;99.90;;;;;;5056782;28;20446;-62
2022/07/11 11:06:03;;;;;;;1.65;0.50;;;19.30;99.90;;;;;;5051860;28;20562;-62
2022/07/11 11:08:38;;;;;;;0.73;0.60;;;19.30;99.90;;;;;;5052271;28;20440;-60
2022/07/11 11:11:29;;;;;;;0.35;0.30;;;19.40;99.90;;;;;;5067145;28;20413;-61
2022/07/11 11:14:27;;;;;;;1.85;0.28;;;19.40;99.90;;;;;;5060177;28;20049;-61
2022/07/11 11:16:53;;;;;;;1.35;0.30;;;19.50;99.90;;;;;;5050354;28;20143;-63
2022/07/11 11:19:44;;;;;;;1.65;0.50;;;19.50;99.90;;;;;;5066021;28;20040;-62
2022/07/11 11:22:14;;;;;;;0.35;0.30;;;19.60;99.90;;;;;;5059900;28;20080;-62
2022/07/11 11:24:42;;;;;;;1.85;0.30;;;19.60;99.90;;;;;;5059159;28;20495;-62
2022/07/11 11:27:17;;;;;;;0.52;0.40;;;19.60;99.90;;;;;;5072301;28;20396;-62
2022/07/11 11:29:44;;;;;;;0.90;0.40;;;19.50;99.90;;;;;;5071161;28;20055;-62
2022/07/11 11:32:10;;;;;;;1.30;0.50;;;19.50;99.90;;;;;;5071710;28;20049;-62
2022/07/11 11:34:36;;;;;;;0.50;0.30;;;19.50;99.90;;;;;;5064470;28;20057;-62
2022/07/11 11:37:01;;;;;;;0.43;0.40;;;19.50;99.90;;;;;;5054144;28;20041;-62
2022/07/11 11:39:36;;;;;;;0.10;0.10;;;19.50;99.90;;;;;;5072294;28;20050;-62
2022/07/11 11:42:16;;;;;;;2.20;0.50;;;19.60;99.90;;;;;;5071504;28;20102;-62
2022/07/11 11:44:54;;;;;;;1.30;0.32;;;19.60;99.90;;;;;;5058854;28;20037;-62
2022/07/11 11:47:20;;;;;;;1.30;0.52;;;19.70;99.90;;;;;;5071027;28;20088;-62
2022/07/11 11:49:49;;;;;;;1.27;0.50;;;19.70;99.90;;;;;;5070756;28;20071;-61
2022/07/11 11:52:15;;;;;;;1.15;0.52;;;19.70;99.90;;;;;;5071179;28;20044;-62
2022/07/11 11:54:41;;;;;;;0.82;0.30;;;19.70;99.90;;;;;;5069022;28;20442;-62
2022/07/11 11:57:10;;;;;;;1.98;0.82;;;19.80;99.90;;;;;;5058277;28;20084;-62
2022/07/11 11:59:37;;;;;;;1.15;0.40;;;19.80;99.90;;;;;;5070331;28;20127;-62
2022/07/11 12:02:03;;;;;;;0.80;0.63;;;19.80;99.90;;;;;;5070083;28;20045;-60
2022/07/11 12:04:33;;;;;;;2.10;0.73;;;19.90;99.90;;;;;;5064478;28;20094;-62
2022/07/11 12:07:01;;;;;;;0.85;0.60;;;19.80;99.90;;;;;;5052754;28;20379;-63
2022/07/11 12:09:46;;;;;;;1.92;0.57;;;19.80;99.90;;;;;;5051730;28;20084;-62
2022/07/11 12:15:00;;;;;;;1.98;0.75;;;19.90;99.90;;;;;;5052580;28;20053;-64
2022/07/11 12:17:29;;;;;;;2.22;0.70;;;19.90;99.90;;;;;;5050054;28;20075;-61
2022/07/11 12:19:55;;;;;;;1.33;0.77;;;19.80;99.90;;;;;;5051352;28;20055;-61
2022/07/11 12:22:21;;;;;;;1.30;0.60;;;19.70;99.90;;;;;;5050704;28;20041;-61
2022/07/11 12:24:51;;;;;;;1.00;0.52;;;19.70;99.90;;;;;;5057335;28;20520;-61
2022/07/11 12:27:22;;;;;;;1.08;0.40;;;19.70;99.90;;;;;;5053330;28;20040;-61
2022/07/11 12:29:51;;;;;;;1.25;0.50;;;19.70;99.90;;;;;;5051301;28;20064;-62
2022/07/11 12:32:18;;;;;;;3.17;0.63;;;19.70;99.90;;;;;;5051648;28;20047;-62
2022/07/11 12:34:46;;;;;;;4.90;0.93;;;19.70;99.90;;;;;;5066203;28;20076;-63
2022/07/11 12:37:17;;;;;;;0.90;0.40;;;19.70;99.90;;;;;;5050728;28;20055;-62
2022/07/11 12:39:54;;;;;;;2.45;0.68;;;19.70;99.90;;;;;;5065156;28;20110;-61
2022/07/11 12:42:26;;;;;;;2.67;0.65;;;19.80;99.90;;;;;;5050333;28;20131;-61
2022/07/11 12:44:59;;;;;;;1.60;0.60;;;19.70;99.90;;;;;;5053435;28;20086;-61
2022/07/11 12:47:28;;;;;;;0.60;0.30;;;19.70;99.90;;;;;;5056870;28;20059;-62
2022/07/11 12:49:55;;;;;;;0.98;0.50;;;19.80;99.90;;;;;;5063115;28;20048;-61
2022/07/11 12:52:21;;;;;;;0.65;0.47;;;19.90;99.90;;;;;;5055101;28;20052;-61
2022/07/11 12:54:47;;;;;;;0.85;0.40;;;20.00;99.90;;;;;;5050263;28;20403;-60
2022/07/11 12:57:17;;;;;;;0.40;0.40;;;20.10;99.90;;;;;;5061541;28;20037;-61
2022/07/11 12:59:43;;;;;;;0.85;0.47;;;20.20;99.90;;;;;;5053688;28;20401;-61
2022/07/11 13:02:12;;;;;;;0.30;0.30;;;20.20;99.90;;;;;;5053119;28;20041;-61